createdAt,value
2022-12-20T00:01:58.994Z,98601.00
2022-12-20T00:04:27.011Z,98611.00
2022-12-20T00:06:55.007Z,98597.00
2022-12-20T00:09:23.094Z,98588.00
2022-12-20T00:11:50.831Z,98597.00
2022-12-20T00:14:19.182Z,98599.00
2022-12-20T00:16:48.244Z,98606.00
2022-12-20T00:19:15.952Z,98599.00
2022-12-20T00:21:43.863Z,98589.00
2022-12-20T00:24:11.852Z,98602.00
2022-12-20T00:26:40.033Z,98607.00
2022-12-20T00:29:08.592Z,98611.00
2022-12-20T00:31:36.367Z,98611.00
2022-12-20T00:34:05.624Z,98611.00
2022-12-20T00:36:34.137Z,98598.00
2022-12-20T00:39:02.371Z,98602.00
2022-12-20T00:41:31.861Z,98600.00
2022-12-20T00:43:59.695Z,98603.00
2022-12-20T00:46:27.841Z,98611.00
2022-12-20T00:48:56.959Z,98608.00
2022-12-20T00:51:29.029Z,98610.00
2022-12-20T00:53:57.191Z,98624.00
2022-12-20T00:56:25.946Z,98616.00
2022-12-20T00:58:54.487Z,98618.00
2022-12-20T01:01:25.097Z,98616.00
2022-12-20T01:03:53.908Z,98601.00
2022-12-20T01:06:22.616Z,98591.00
2022-12-20T01:08:52.312Z,98593.00
2022-12-20T01:11:22.220Z,98605.00
2022-12-20T01:13:52.255Z,98601.00
2022-12-20T01:16:22.751Z,98596.00
2022-12-20T01:18:51.243Z,98592.00
2022-12-20T01:21:21.167Z,98590.00
2022-12-20T01:23:49.141Z,98588.00
2022-12-20T01:26:20.534Z,98579.00
2022-12-20T01:28:49.245Z,98570.00
2022-12-20T01:31:19.461Z,98576.00
2022-12-20T01:33:48.979Z,98581.00
2022-12-20T01:36:18.708Z,98584.00
2022-12-20T01:38:47.097Z,98586.00
2022-12-20T01:41:18.660Z,98595.00
2022-12-20T01:43:49.406Z,98591.00
2022-12-20T01:46:17.590Z,98585.00
2022-12-20T01:48:50.415Z,98574.00
2022-12-20T01:51:19.384Z,98589.00
2022-12-20T01:53:48.519Z,98602.00
2022-12-20T01:56:16.240Z,98592.00
2022-12-20T01:58:49.119Z,98600.00
2022-12-20T02:01:16.862Z,98601.00
2022-12-20T02:03:45.927Z,98593.00
2022-12-20T02:06:19.907Z,98591.00
2022-12-20T02:08:49.262Z,98570.00
2022-12-20T02:11:33.294Z,98559.00
2022-12-20T02:14:15.603Z,98572.00
2022-12-20T02:16:51.731Z,98570.00
2022-12-20T02:19:37.999Z,98562.00
2022-12-20T02:22:17.626Z,98561.00
2022-12-20T02:25:12.416Z,98563.00
2022-12-20T02:27:50.364Z,98545.00
2022-12-20T02:30:21.051Z,98540.00
2022-12-20T02:32:58.459Z,98520.00
2022-12-20T02:35:29.208Z,98522.00
2022-12-20T02:37:58.751Z,98505.00
2022-12-20T02:40:29.792Z,98505.00
2022-12-20T02:43:02.578Z,98508.00
2022-12-20T02:45:34.604Z,98499.00
2022-12-20T02:48:05.776Z,98504.00
2022-12-20T02:50:37.762Z,98506.00
2022-12-20T02:53:07.955Z,98521.00
2022-12-20T02:55:43.787Z,98517.00
2022-12-20T02:58:19.507Z,98522.00
2022-12-20T03:00:52.508Z,98516.00
2022-12-20T03:03:26.397Z,98507.00
2022-12-20T03:05:56.760Z,98506.00
2022-12-20T03:08:25.260Z,98523.00
2022-12-20T03:10:55.322Z,98518.00
2022-12-20T03:13:24.595Z,98514.00
2022-12-20T03:15:53.803Z,98505.00
2022-12-20T03:18:21.541Z,98495.00
2022-12-20T03:20:49.610Z,98494.00
2022-12-20T03:23:17.283Z,98493.00
2022-12-20T03:25:44.974Z,98503.00
2022-12-20T03:28:12.760Z,98511.00
2022-12-20T03:30:40.552Z,98494.00
2022-12-20T03:33:10.086Z,98501.00
2022-12-20T03:35:37.795Z,98511.00
2022-12-20T03:38:05.536Z,98509.00
2022-12-20T03:40:33.255Z,98521.00
2022-12-20T03:43:00.934Z,98522.00
2022-12-20T03:45:28.635Z,98511.00
2022-12-20T03:47:56.293Z,98515.00
2022-12-20T03:50:25.395Z,98519.00
2022-12-20T03:52:53.086Z,98504.00
2022-12-20T03:55:20.776Z,98507.00
2022-12-20T03:57:48.559Z,98506.00
2022-12-20T04:00:17.691Z,98495.00
2022-12-20T04:02:45.592Z,98500.00
2022-12-20T04:05:13.547Z,98505.00
2022-12-20T04:07:42.593Z,98500.00
2022-12-20T04:10:11.382Z,98493.00
2022-12-20T04:12:39.101Z,98487.00
2022-12-20T04:15:08.145Z,98490.00
2022-12-20T04:17:35.957Z,98495.00
2022-12-20T04:20:18.951Z,98497.00
2022-12-20T04:22:48.938Z,98493.00
2022-12-20T04:25:19.849Z,98493.00
2022-12-20T04:27:47.819Z,98485.00
2022-12-20T04:30:15.983Z,98485.00
2022-12-20T04:32:43.695Z,98481.00
2022-12-20T04:35:12.211Z,98474.00
2022-12-20T04:37:39.884Z,98484.00
2022-12-20T04:40:10.665Z,98477.00
2022-12-20T04:42:38.375Z,98482.00
2022-12-20T04:45:06.984Z,98476.00
2022-12-20T04:47:34.804Z,98465.00
2022-12-20T04:50:02.526Z,98462.00
2022-12-20T04:52:48.451Z,98464.00
2022-12-20T04:55:17.899Z,98455.00
2022-12-20T04:57:45.717Z,98447.00
2022-12-20T05:00:15.383Z,98441.00
2022-12-20T05:02:43.339Z,98447.00
2022-12-20T05:05:11.294Z,98448.00
2022-12-20T05:07:39.132Z,98440.00
2022-12-20T05:10:07.752Z,98447.00
2022-12-20T05:12:36.771Z,98451.00
2022-12-20T05:15:04.873Z,98440.00
2022-12-20T05:17:32.626Z,98449.00
2022-12-20T05:20:00.362Z,98446.00
2022-12-20T05:22:45.920Z,98432.00
2022-12-20T05:25:31.302Z,98436.00
2022-12-20T05:28:00.383Z,98426.00
2022-12-20T05:30:28.113Z,98414.00
2022-12-20T05:32:55.804Z,98405.00
2022-12-20T05:35:23.708Z,98400.00
2022-12-20T05:37:51.568Z,98414.00
2022-12-20T05:40:19.380Z,98414.00
2022-12-20T05:42:47.100Z,98420.00
2022-12-20T05:45:16.303Z,98416.00
2022-12-20T05:47:44.025Z,98420.00
2022-12-20T05:50:18.516Z,98421.00
2022-12-20T05:52:46.597Z,98415.00
2022-12-20T05:55:14.248Z,98423.00
2022-12-20T05:57:41.950Z,98422.00
2022-12-20T06:00:11.513Z,98413.00
2022-12-20T06:02:40.620Z,98419.00
2022-12-20T06:05:08.972Z,98418.00
2022-12-20T06:07:36.724Z,98419.00
2022-12-20T06:10:04.566Z,98426.00
2022-12-20T06:12:32.240Z,98421.00
2022-12-20T06:14:59.924Z,98417.00
2022-12-20T06:17:27.588Z,98423.00
2022-12-20T06:19:56.918Z,98414.00
2022-12-20T06:22:24.644Z,98403.00
2022-12-20T06:24:52.314Z,98405.00
2022-12-20T06:27:22.117Z,98414.00
2022-12-20T06:29:52.103Z,98417.00
2022-12-20T06:32:19.864Z,98415.00
2022-12-20T06:34:47.645Z,98416.00
2022-12-20T06:37:16.681Z,98409.00
2022-12-20T06:39:44.332Z,98416.00
2022-12-20T06:42:12.036Z,98422.00
2022-12-20T06:44:39.702Z,98430.00
2022-12-20T06:47:07.437Z,98440.00
2022-12-20T06:49:35.090Z,98439.00
2022-12-20T06:52:02.800Z,98441.00
2022-12-20T06:54:31.862Z,98444.00
2022-12-20T06:56:59.596Z,98458.00
2022-12-20T06:59:27.283Z,98466.00
2022-12-20T07:01:55.158Z,98468.00
2022-12-20T07:04:22.909Z,98461.00
2022-12-20T07:06:50.593Z,98455.00
2022-12-20T07:09:18.372Z,98459.00
2022-12-20T07:11:47.395Z,98454.00
2022-12-20T07:14:15.177Z,98462.00
2022-12-20T07:16:46.553Z,98467.00
2022-12-20T07:19:15.492Z,98449.00
2022-12-20T07:21:43.266Z,98443.00
2022-12-20T07:24:11.661Z,98431.00
2022-12-20T07:26:39.335Z,98432.00
2022-12-20T07:29:11.992Z,98433.00
2022-12-20T07:31:42.933Z,98423.00
2022-12-20T07:34:11.924Z,98425.00
2022-12-20T07:36:39.701Z,98427.00
2022-12-20T07:39:07.447Z,98413.00
2022-12-20T07:41:35.469Z,98424.00
2022-12-20T07:44:03.294Z,98431.00
2022-12-20T07:46:32.405Z,98418.00
2022-12-20T07:49:00.257Z,98410.00
2022-12-20T07:51:30.372Z,98411.00
2022-12-20T07:54:01.654Z,98419.00
2022-12-20T07:56:34.563Z,98419.00
2022-12-20T07:59:05.341Z,98415.00
2022-12-20T08:01:34.560Z,98410.00
2022-12-20T08:04:06.941Z,98406.00
2022-12-20T08:06:38.057Z,98408.00
2022-12-20T08:09:07.150Z,98402.00
2022-12-20T08:11:37.285Z,98393.00
2022-12-20T08:14:06.735Z,98401.00
2022-12-20T08:16:36.171Z,98397.00
2022-12-20T08:19:03.952Z,98383.00
2022-12-20T08:21:31.897Z,98402.00
2022-12-20T08:23:59.628Z,98387.00
2022-12-20T08:26:27.645Z,98380.00
2022-12-20T08:28:55.934Z,98374.00
2022-12-20T08:31:24.322Z,98387.00
2022-12-20T08:33:55.642Z,98394.00
2022-12-20T08:36:23.647Z,98393.00
2022-12-20T08:38:51.347Z,98375.00
2022-12-20T08:41:18.999Z,98372.00
2022-12-20T08:43:46.714Z,98374.00
2022-12-20T08:46:14.453Z,98378.00
2022-12-20T08:48:42.260Z,98371.00
2022-12-20T08:51:12.656Z,98362.00
2022-12-20T08:53:40.812Z,98353.00
2022-12-20T08:56:10.488Z,98353.00
2022-12-20T08:58:38.665Z,98369.00
2022-12-20T09:01:07.547Z,98358.00
2022-12-20T09:03:36.134Z,98368.00
2022-12-20T09:06:07.175Z,98353.00
2022-12-20T09:08:36.628Z,98353.00
2022-12-20T09:11:06.562Z,98350.00
2022-12-20T09:13:41.411Z,98355.00
2022-12-20T09:16:12.373Z,98359.00
2022-12-20T09:18:40.155Z,98359.00
2022-12-20T09:21:09.858Z,98369.00
2022-12-20T09:23:39.136Z,98372.00
2022-12-20T09:26:09.558Z,98374.00
2022-12-20T09:28:37.219Z,98377.00
2022-12-20T09:31:08.022Z,98365.00
2022-12-20T09:33:36.522Z,98370.00
2022-12-20T09:36:04.911Z,98365.00
2022-12-20T09:38:33.130Z,98362.00
2022-12-20T09:41:04.865Z,98367.00
2022-12-20T09:43:34.103Z,98359.00
2022-12-20T09:46:03.387Z,98352.00
2022-12-20T09:48:33.533Z,98355.00
2022-12-20T09:51:13.525Z,98351.00
2022-12-20T09:53:53.008Z,98343.00
2022-12-20T09:56:28.392Z,98346.00
2022-12-20T09:59:01.628Z,98355.00
2022-12-20T10:01:37.940Z,98335.00
2022-12-20T10:04:09.051Z,98327.00
2022-12-20T10:06:48.367Z,98313.00
2022-12-20T10:09:41.367Z,98323.00
2022-12-20T10:12:21.747Z,98323.00
2022-12-20T10:15:16.076Z,98323.00
2022-12-20T10:17:56.063Z,98305.00
2022-12-20T10:20:35.513Z,98297.00
2022-12-20T10:23:10.215Z,98304.00
2022-12-20T10:25:38.220Z,98290.00
2022-12-20T10:28:13.490Z,98282.00
2022-12-20T10:30:41.360Z,98285.00
2022-12-20T10:33:17.854Z,98273.00
2022-12-20T10:35:45.999Z,98284.00
2022-12-20T10:38:17.569Z,98273.00
2022-12-20T10:41:20.032Z,98268.00
2022-12-20T10:43:45.913Z,98270.00
2022-12-20T10:46:16.654Z,98258.00
2022-12-20T10:48:45.599Z,98249.00
2022-12-20T10:51:18.296Z,98251.00
2022-12-20T10:53:58.366Z,98259.00
2022-12-20T10:56:29.040Z,98256.00
2022-12-20T10:59:00.019Z,98258.00
2022-12-20T11:01:31.298Z,98253.00
2022-12-20T11:04:02.568Z,98236.00
2022-12-20T11:06:42.557Z,98247.00
2022-12-20T11:09:29.905Z,98239.00
2022-12-20T11:12:16.400Z,98236.00
2022-12-20T11:14:49.033Z,98246.00
2022-12-20T11:17:26.225Z,98241.00
2022-12-20T11:20:10.323Z,98228.00
2022-12-20T11:22:52.106Z,98236.00
2022-12-20T11:25:34.451Z,98226.00
2022-12-20T11:28:17.414Z,98219.00
2022-12-20T11:30:55.453Z,98235.00
2022-12-20T11:33:46.523Z,98240.00
2022-12-20T11:36:24.365Z,98243.00
2022-12-20T11:39:02.586Z,98238.00
2022-12-20T11:41:37.209Z,98231.00
2022-12-20T11:44:28.939Z,98234.00
2022-12-20T11:47:13.571Z,98218.00
2022-12-20T11:50:05.016Z,98220.00
2022-12-20T11:52:38.047Z,98207.00
2022-12-20T11:55:17.876Z,98212.00
2022-12-20T11:58:16.932Z,98200.00
2022-12-20T12:00:39.188Z,98196.00
2022-12-20T12:03:14.917Z,98182.00
2022-12-20T12:05:46.174Z,98190.00
2022-12-20T12:08:19.013Z,98188.00
2022-12-20T12:10:59.372Z,98186.00
2022-12-20T12:13:29.587Z,98186.00
2022-12-20T12:16:03.263Z,98184.00
2022-12-20T12:18:34.466Z,98180.00
2022-12-20T12:21:10.483Z,98167.00
2022-12-20T12:23:48.077Z,98162.00
2022-12-20T12:26:21.225Z,98156.00
2022-12-20T12:28:54.821Z,98156.00
2022-12-20T12:31:27.061Z,98156.00
2022-12-20T12:34:09.842Z,98142.00
2022-12-20T12:37:08.334Z,98158.00
2022-12-20T12:39:50.653Z,98162.00
2022-12-20T12:42:45.785Z,98159.00
2022-12-20T12:45:19.477Z,98169.00
2022-12-20T12:47:52.798Z,98177.00
2022-12-20T12:50:26.837Z,98160.00
2022-12-20T12:52:57.189Z,98136.00
2022-12-20T12:55:39.754Z,98133.00
2022-12-20T12:58:35.332Z,98111.00
2022-12-20T13:01:08.126Z,98112.00
2022-12-20T13:03:46.026Z,98114.00
2022-12-20T13:06:55.005Z,98101.00
2022-12-20T13:09:38.578Z,98100.00
2022-12-20T13:12:48.815Z,98109.00
2022-12-20T13:15:47.843Z,98120.00
2022-12-20T13:18:23.491Z,98107.00
2022-12-20T13:21:33.254Z,98098.00
2022-12-20T13:24:42.635Z,98094.00
2022-12-20T13:27:30.119Z,98094.00
2022-12-20T13:30:26.106Z,98092.00
2022-12-20T13:33:20.432Z,98082.00
2022-12-20T13:36:04.389Z,98104.00
2022-12-20T13:38:52.932Z,98102.00
2022-12-20T13:41:34.774Z,98111.00
2022-12-20T13:44:35.119Z,98116.00
2022-12-20T13:47:07.618Z,98119.00
2022-12-20T13:49:39.352Z,98128.00
2022-12-20T13:52:32.491Z,98125.00
2022-12-20T13:55:05.816Z,98125.00
2022-12-20T13:57:41.253Z,98131.00
2022-12-20T14:00:17.473Z,98142.00
2022-12-20T14:02:45.655Z,98152.00
2022-12-20T14:05:20.832Z,98150.00
2022-12-20T14:07:53.978Z,98141.00
2022-12-20T14:10:24.705Z,98130.00
2022-12-20T14:12:53.325Z,98118.00
2022-12-20T14:15:28.325Z,98104.00
2022-12-20T14:17:56.541Z,98104.00
2022-12-20T14:20:30.093Z,98098.00
2022-12-20T14:23:05.917Z,98105.00
2022-12-20T14:25:37.870Z,98097.00
2022-12-20T14:28:06.427Z,98096.00
2022-12-20T14:30:42.345Z,98079.00
2022-12-20T14:33:20.935Z,98073.00
2022-12-20T14:35:49.298Z,98058.00
2022-12-20T14:38:23.385Z,98063.00
2022-12-20T14:40:54.107Z,98074.00
2022-12-20T14:43:28.963Z,98087.00
2022-12-20T14:46:18.545Z,98076.00
2022-12-20T14:48:47.861Z,98047.00
2022-12-20T14:51:21.758Z,98044.00
2022-12-20T14:53:51.487Z,98030.00
2022-12-20T14:56:27.852Z,98053.00
2022-12-20T14:59:05.992Z,98069.00
2022-12-20T15:01:40.181Z,98055.00
2022-12-20T15:04:24.458Z,98052.00
2022-12-20T15:06:53.487Z,98056.00
2022-12-20T15:09:21.895Z,98046.00
2022-12-20T15:11:51.620Z,98037.00
2022-12-20T15:14:36.720Z,98043.00
2022-12-20T15:17:11.490Z,98039.00
2022-12-20T15:19:42.527Z,98033.00
2022-12-20T15:22:15.706Z,98049.00
2022-12-20T15:24:43.944Z,98053.00
2022-12-20T15:27:14.453Z,98057.00
2022-12-20T15:29:43.664Z,98039.00
2022-12-20T15:32:20.098Z,98050.00
2022-12-20T15:34:47.812Z,98054.00
2022-12-20T15:37:18.714Z,98040.00
2022-12-20T15:39:47.051Z,98039.00
2022-12-20T15:42:18.262Z,98041.00
2022-12-20T15:44:46.208Z,98033.00
2022-12-20T15:47:15.819Z,98024.00
2022-12-20T15:49:49.805Z,98036.00
2022-12-20T15:52:21.749Z,98038.00
2022-12-20T15:54:49.517Z,98046.00
2022-12-20T15:57:17.416Z,98037.00
2022-12-20T16:00:02.321Z,98037.00
2022-12-20T16:02:33.495Z,98038.00
2022-12-20T16:05:01.579Z,98038.00
2022-12-20T16:07:29.279Z,98046.00
2022-12-20T16:09:57.083Z,98040.00
2022-12-20T16:12:27.843Z,98036.00
2022-12-20T16:14:55.575Z,98028.00
2022-12-20T16:17:23.241Z,98018.00
2022-12-20T16:19:52.203Z,98016.00
2022-12-20T16:22:22.601Z,98022.00
2022-12-20T16:24:50.682Z,98021.00
2022-12-20T16:27:18.501Z,98013.00
2022-12-20T16:29:46.156Z,98005.00
2022-12-20T16:32:16.325Z,98011.00
2022-12-20T16:34:44.520Z,97999.00
2022-12-20T16:37:13.833Z,97998.00
2022-12-20T16:39:42.171Z,97997.00
2022-12-20T16:42:14.822Z,97988.00
2022-12-20T16:44:44.851Z,97992.00
2022-12-20T16:47:13.227Z,97992.00
2022-12-20T16:49:47.183Z,97991.00
2022-12-20T16:52:19.812Z,97987.00
2022-12-20T16:54:47.520Z,97976.00
2022-12-20T16:57:15.140Z,97978.00
2022-12-20T16:59:42.843Z,97987.00
2022-12-20T17:02:24.503Z,97991.00
2022-12-20T17:04:52.468Z,97989.00
2022-12-20T17:07:21.866Z,97987.00
2022-12-20T17:09:49.732Z,97996.00
2022-12-20T17:12:18.877Z,98003.00
2022-12-20T17:14:47.299Z,98009.00
2022-12-20T17:17:15.277Z,98016.00
2022-12-20T17:19:42.982Z,98002.00
2022-12-20T17:24:59.705Z,97995.00
2022-12-20T17:27:27.358Z,97989.00
2022-12-20T17:29:55.063Z,97983.00
2022-12-20T17:32:24.617Z,97989.00
2022-12-20T17:34:54.402Z,97986.00
2022-12-20T17:37:22.257Z,97977.00
2022-12-20T17:39:50.026Z,97993.00
2022-12-20T17:42:18.994Z,98001.00
2022-12-20T17:44:47.103Z,98004.00
2022-12-20T17:47:16.879Z,98011.00
2022-12-20T17:49:44.612Z,98012.00
2022-12-20T17:52:14.846Z,98003.00
2022-12-20T17:54:42.597Z,98011.00
2022-12-20T17:57:14.264Z,98002.00
2022-12-20T17:59:43.752Z,97998.00
2022-12-20T18:02:20.985Z,97987.00
2022-12-20T18:04:49.001Z,97983.00
2022-12-20T18:07:16.750Z,97988.00
2022-12-20T18:09:47.492Z,97986.00
2022-12-20T18:12:15.265Z,97987.00
2022-12-20T18:14:44.817Z,97998.00
2022-12-20T18:17:12.751Z,97999.00
2022-12-20T18:19:40.791Z,98001.00
2022-12-20T18:22:08.540Z,97998.00
2022-12-20T18:24:36.318Z,98017.00
2022-12-20T18:27:04.069Z,98017.00
2022-12-20T18:29:31.891Z,97999.00
2022-12-20T18:32:00.923Z,98016.00
2022-12-20T18:34:28.771Z,98018.00
2022-12-20T18:36:56.473Z,97996.00
2022-12-20T18:39:24.172Z,97984.00
2022-12-20T18:41:51.778Z,97986.00
2022-12-20T18:44:19.410Z,97989.00
2022-12-20T18:46:47.079Z,97986.00
2022-12-20T18:49:16.069Z,97986.00
2022-12-20T18:51:43.875Z,97980.00
2022-12-20T18:54:13.591Z,97986.00
2022-12-20T18:56:41.685Z,97976.00
2022-12-20T18:59:12.338Z,97972.00
2022-12-20T19:01:41.999Z,97958.00
2022-12-20T19:04:10.408Z,97955.00
2022-12-20T19:06:39.578Z,97953.00
2022-12-20T19:09:09.374Z,97951.00
2022-12-20T19:11:37.840Z,97936.00
2022-12-20T19:14:05.845Z,97931.00
2022-12-20T19:16:33.646Z,97941.00
2022-12-20T19:19:02.419Z,97946.00
2022-12-20T19:21:31.696Z,97941.00
2022-12-20T19:24:03.812Z,97942.00
2022-12-20T19:26:32.435Z,97933.00
2022-12-20T19:29:00.168Z,97917.00
2022-12-20T19:31:29.336Z,97912.00
2022-12-20T19:33:59.489Z,97912.00
2022-12-20T19:36:28.533Z,97910.00
2022-12-20T19:38:58.601Z,97907.00
2022-12-20T19:41:30.583Z,97888.00
2022-12-20T19:43:58.613Z,97887.00
2022-12-20T19:46:29.844Z,97907.00
2022-12-20T19:48:59.199Z,97926.00
2022-12-20T19:51:27.734Z,97930.00
2022-12-20T19:53:56.717Z,97928.00
2022-12-20T19:56:27.975Z,97927.00
2022-12-20T19:58:56.208Z,97925.00
2022-12-20T20:01:26.189Z,97930.00
2022-12-20T20:03:54.976Z,97927.00
2022-12-20T20:06:23.946Z,97938.00
2022-12-20T20:08:51.772Z,97953.00
2022-12-20T20:11:21.172Z,97943.00
2022-12-20T20:13:50.739Z,97943.00
2022-12-20T20:16:22.523Z,97936.00
2022-12-20T20:18:51.307Z,97924.00
2022-12-20T20:21:21.429Z,97922.00
2022-12-20T20:23:50.138Z,97924.00
2022-12-20T20:26:20.473Z,97915.00
2022-12-20T20:28:48.193Z,97917.00
2022-12-20T20:31:19.209Z,97905.00
2022-12-20T20:33:47.353Z,97894.00
2022-12-20T20:36:17.232Z,97903.00
2022-12-20T20:38:45.590Z,97928.00
2022-12-20T20:41:14.113Z,97921.00
2022-12-20T20:43:42.097Z,97922.00
2022-12-20T20:46:12.362Z,97916.00
2022-12-20T20:48:41.884Z,97919.00
2022-12-20T20:51:09.666Z,97912.00
2022-12-20T20:53:37.461Z,97903.00
2022-12-20T20:56:06.322Z,97904.00
2022-12-20T20:58:34.732Z,97918.00
2022-12-20T21:01:03.945Z,97910.00
2022-12-20T21:03:32.907Z,97910.00
2022-12-20T21:08:49.632Z,97905.00
2022-12-20T21:11:17.742Z,97897.00
2022-12-20T21:13:45.484Z,97908.00
2022-12-20T21:16:16.699Z,97899.00
2022-12-20T21:18:44.544Z,97898.00
2022-12-20T21:21:14.295Z,97891.00
2022-12-20T21:23:45.378Z,97894.00
2022-12-20T21:26:13.615Z,97898.00
2022-12-20T21:28:41.996Z,97898.00
2022-12-20T21:31:11.789Z,97908.00
2022-12-20T21:33:40.028Z,97898.00
2022-12-20T21:36:11.465Z,97895.00
2022-12-20T21:38:40.663Z,97893.00
2022-12-20T21:41:11.289Z,97896.00
2022-12-20T21:43:39.257Z,97902.00
2022-12-20T21:46:11.051Z,97912.00
2022-12-20T21:48:39.101Z,97905.00
2022-12-20T21:51:10.081Z,97910.00
2022-12-20T21:53:42.519Z,97903.00
2022-12-20T21:56:10.638Z,97902.00
2022-12-20T21:58:38.368Z,97904.00
2022-12-20T22:01:07.882Z,97910.00
2022-12-20T22:03:36.732Z,97904.00
2022-12-20T22:06:05.668Z,97907.00
2022-12-20T22:08:34.283Z,97914.00
2022-12-20T22:11:06.180Z,97915.00
2022-12-20T22:13:40.658Z,97923.00
2022-12-20T22:16:10.240Z,97927.00
2022-12-20T22:18:39.161Z,97919.00
2022-12-20T22:21:08.228Z,97924.00
2022-12-20T22:23:37.409Z,97924.00
2022-12-20T22:26:09.340Z,97919.00
2022-12-20T22:28:37.694Z,97918.00
2022-12-20T22:31:08.421Z,97921.00
2022-12-20T22:33:36.590Z,97918.00
2022-12-20T22:36:04.903Z,97914.00
2022-12-20T22:38:32.752Z,97939.00
2022-12-20T22:41:09.622Z,97931.00
2022-12-20T22:43:37.600Z,97936.00
2022-12-20T22:46:06.349Z,97934.00
2022-12-20T22:48:34.598Z,97932.00
2022-12-20T22:51:03.956Z,97938.00
2022-12-20T22:53:33.723Z,97929.00
2022-12-20T22:56:01.774Z,97916.00
2022-12-20T22:58:31.424Z,97913.00
2022-12-20T23:00:59.864Z,97916.00
2022-12-20T23:03:29.015Z,97913.00
2022-12-20T23:05:59.047Z,97911.00
2022-12-20T23:08:28.558Z,97914.00
2022-12-20T23:11:25.691Z,97909.00
2022-12-20T23:14:12.456Z,97924.00
2022-12-20T23:16:40.198Z,97927.00
2022-12-20T23:19:07.870Z,97924.00
2022-12-20T23:21:53.097Z,97925.00
2022-12-20T23:24:20.725Z,97913.00
2022-12-20T23:26:48.361Z,97916.00
2022-12-20T23:29:17.443Z,97926.00
2022-12-20T23:31:45.186Z,97917.00
2022-12-20T23:34:12.865Z,97925.00
2022-12-20T23:36:40.876Z,97914.00
2022-12-20T23:39:08.929Z,97922.00
2022-12-20T23:41:36.567Z,97917.00
2022-12-20T23:44:05.532Z,97913.00
2022-12-20T23:46:34.985Z,97905.00
2022-12-20T23:49:02.617Z,97893.00
2022-12-20T23:51:30.519Z,97894.00
2022-12-20T23:53:58.253Z,97894.00
2022-12-20T23:56:25.919Z,97912.00
2022-12-20T23:58:55.641Z,97907.00
